Terminal Aerodrome Forecast
Issued by NWS

Home | Current Version | Previous Version | Text Only | Print | Product List | Glossary On
Versions: 1 2 3 4 5 6 7 8 9 10 11 12 13 14 15 16 17
000
FTUS41 KBOX 060535
TAFBED
TAF
KBED 060535Z 0606/0706 28005KT P6SM FEW250
     FM061400 34005KT P6SM FEW250
     FM062000 05004KT P6SM SCT250
     FM070100 08003KT P6SM BKN100
     FM070500 06003KT P6SM -SN OVC045=

USA.gov is the U.S. government's official web portal to all federal, state and local government web resources and services.